sensor_id;sensor_type;location;lat;lon;timestamp;temperature;humidity
39103;DHT22;24847;48.218;16.414;2022-07-17T00:04:59;19.40;84.10
39103;DHT22;24847;48.218;16.414;2022-07-17T00:10:02;19.20;84.70
39103;DHT22;24847;48.218;16.414;2022-07-17T00:15:07;19.30;84.10
39103;DHT22;24847;48.218;16.414;2022-07-17T00:20:10;19.40;82.90
39103;DHT22;24847;48.218;16.414;2022-07-17T00:25:13;19.50;82.50
39103;DHT22;24847;48.218;16.414;2022-07-17T00:30:17;19.60;82.20
39103;DHT22;24847;48.218;16.414;2022-07-17T00:35:20;19.50;81.70
39103;DHT22;24847;48.218;16.414;2022-07-17T00:40:26;19.30;82.00
39103;DHT22;24847;48.218;16.414;2022-07-17T00:45:33;19.30;83.40
39103;DHT22;24847;48.218;16.414;2022-07-17T00:50:39;18.80;84.60
39103;DHT22;24847;48.218;16.414;2022-07-17T00:55:42;18.90;84.50
39103;DHT22;24847;48.218;16.414;2022-07-17T01:00:51;18.80;84.10
39103;DHT22;24847;48.218;16.414;2022-07-17T01:05:55;18.80;84.30
39103;DHT22;24847;48.218;16.414;2022-07-17T01:10:57;18.60;84.80
39103;DHT22;24847;48.218;16.414;2022-07-17T01:16:01;18.80;85.40
39103;DHT22;24847;48.218;16.414;2022-07-17T01:21:06;18.60;86.50
39103;DHT22;24847;48.218;16.414;2022-07-17T01:26:08;18.50;87.40
39103;DHT22;24847;48.218;16.414;2022-07-17T01:31:10;18.40;88.10
39103;DHT22;24847;48.218;16.414;2022-07-17T01:36:14;18.30;88.80
39103;DHT22;24847;48.218;16.414;2022-07-17T01:41:17;18.50;87.80
39103;DHT22;24847;48.218;16.414;2022-07-17T01:46:19;18.40;88.80
39103;DHT22;24847;48.218;16.414;2022-07-17T01:51:23;18.20;89.50
39103;DHT22;24847;48.218;16.414;2022-07-17T01:56:25;18.40;88.90
39103;DHT22;24847;48.218;16.414;2022-07-17T02:01:28;18.20;88.60
39103;DHT22;24847;48.218;16.414;2022-07-17T02:06:31;18.00;89.70
39103;DHT22;24847;48.218;16.414;2022-07-17T02:11:33;18.00;90.10
39103;DHT22;24847;48.218;16.414;2022-07-17T02:16:35;18.40;89.50
39103;DHT22;24847;48.218;16.414;2022-07-17T02:21:39;18.20;90.00
39103;DHT22;24847;48.218;16.414;2022-07-17T02:26:42;18.10;90.40
39103;DHT22;24847;48.218;16.414;2022-07-17T02:31:45;17.90;90.90
39103;DHT22;24847;48.218;16.414;2022-07-17T02:36:48;18.10;90.90
39103;DHT22;24847;48.218;16.414;2022-07-17T02:41:51;18.00;91.30
39103;DHT22;24847;48.218;16.414;2022-07-17T02:46:53;17.90;91.70
39103;DHT22;24847;48.218;16.414;2022-07-17T02:51:58;17.80;92.20
39103;DHT22;24847;48.218;16.414;2022-07-17T02:57:00;17.90;92.70
39103;DHT22;24847;48.218;16.414;2022-07-17T03:02:03;17.80;92.90
39103;DHT22;24847;48.218;16.414;2022-07-17T03:07:07;17.70;92.80
39103;DHT22;24847;48.218;16.414;2022-07-17T03:12:09;18.00;92.20
39103;DHT22;24847;48.218;16.414;2022-07-17T03:17:11;18.20;91.50
39103;DHT22;24847;48.218;16.414;2022-07-17T03:22:15;18.00;91.00
39103;DHT22;24847;48.218;16.414;2022-07-17T03:27:18;17.60;91.80
39103;DHT22;24847;48.218;16.414;2022-07-17T03:32:22;17.70;93.30
39103;DHT22;24847;48.218;16.414;2022-07-17T03:37:26;17.40;94.40
39103;DHT22;24847;48.218;16.414;2022-07-17T03:42:29;17.20;94.90
39103;DHT22;24847;48.218;16.414;2022-07-17T03:47:31;17.40;94.80
39103;DHT22;24847;48.218;16.414;2022-07-17T03:52:34;17.20;95.30
39103;DHT22;24847;48.218;16.414;2022-07-17T03:57:38;17.10;95.10
39103;DHT22;24847;48.218;16.414;2022-07-17T04:02:41;17.30;94.60
39103;DHT22;24847;48.218;16.414;2022-07-17T04:07:44;17.30;94.90
39103;DHT22;24847;48.218;16.414;2022-07-17T04:12:47;17.20;95.80
39103;DHT22;24847;48.218;16.414;2022-07-17T04:17:49;17.20;95.50
39103;DHT22;24847;48.218;16.414;2022-07-17T04:22:53;17.40;95.00
39103;DHT22;24847;48.218;16.414;2022-07-17T04:27:55;17.40;95.40
39103;DHT22;24847;48.218;16.414;2022-07-17T04:32:58;17.50;95.50
39103;DHT22;24847;48.218;16.414;2022-07-17T04:38:03;17.70;95.40
39103;DHT22;24847;48.218;16.414;2022-07-17T04:43:07;17.80;95.40
39103;DHT22;24847;48.218;16.414;2022-07-17T04:48:09;18.00;95.10
39103;DHT22;24847;48.218;16.414;2022-07-17T04:53:13;18.40;94.80
39103;DHT22;24847;48.218;16.414;2022-07-17T04:58:16;18.50;94.80
39103;DHT22;24847;48.218;16.414;2022-07-17T05:03:20;18.30;94.60
39103;DHT22;24847;48.218;16.414;2022-07-17T05:08:25;18.60;94.30
39103;DHT22;24847;48.218;16.414;2022-07-17T05:13:28;18.80;94.40
39103;DHT22;24847;48.218;16.414;2022-07-17T05:18:30;19.50;94.00
39103;DHT22;24847;48.218;16.414;2022-07-17T05:23:34;19.70;93.80
39103;DHT22;24847;48.218;16.414;2022-07-17T05:28:36;19.80;93.40
39103;DHT22;24847;48.218;16.414;2022-07-17T05:33:38;19.80;92.60
39103;DHT22;24847;48.218;16.414;2022-07-17T05:38:42;20.30;91.30
39103;DHT22;24847;48.218;16.414;2022-07-17T05:43:46;20.60;90.30
39103;DHT22;24847;48.218;16.414;2022-07-17T05:48:48;20.90;90.00
39103;DHT22;24847;48.218;16.414;2022-07-17T05:53:52;21.50;87.90
39103;DHT22;24847;48.218;16.414;2022-07-17T05:58:54;21.70;84.10
39103;DHT22;24847;48.218;16.414;2022-07-17T06:03:56;21.70;84.30
39103;DHT22;24847;48.218;16.414;2022-07-17T06:09:00;22.70;83.00
39103;DHT22;24847;48.218;16.414;2022-07-17T06:14:02;23.40;80.00
39103;DHT22;24847;48.218;16.414;2022-07-17T06:19:04;24.10;78.10
39103;DHT22;24847;48.218;16.414;2022-07-17T06:24:08;24.10;77.80
39103;DHT22;24847;48.218;16.414;2022-07-17T06:29:11;24.70;74.00
39103;DHT22;24847;48.218;16.414;2022-07-17T06:34:13;24.80;72.80
39103;DHT22;24847;48.218;16.414;2022-07-17T06:39:19;26.40;69.90
39103;DHT22;24847;48.218;16.414;2022-07-17T06:44:21;25.70;69.80
39103;DHT22;24847;48.218;16.414;2022-07-17T06:49:23;26.20;67.30
39103;DHT22;24847;48.218;16.414;2022-07-17T06:54:27;27.00;67.40
39103;DHT22;24847;48.218;16.414;2022-07-17T06:59:29;27.40;65.80
39103;DHT22;24847;48.218;16.414;2022-07-17T07:04:31;27.80;63.40
39103;DHT22;24847;48.218;16.414;2022-07-17T07:09:35;27.40;60.20
39103;DHT22;24847;48.218;16.414;2022-07-17T07:14:37;27.80;61.20
39103;DHT22;24847;48.218;16.414;2022-07-17T07:19:39;28.30;57.80
39103;DHT22;24847;48.218;16.414;2022-07-17T07:24:43;29.70;56.30
39103;DHT22;24847;48.218;16.414;2022-07-17T07:29:48;30.30;54.90
39103;DHT22;24847;48.218;16.414;2022-07-17T07:34:50;30.20;54.80
39103;DHT22;24847;48.218;16.414;2022-07-17T07:39:54;29.80;54.60
39103;DHT22;24847;48.218;16.414;2022-07-17T07:44:56;29.20;55.80
39103;DHT22;24847;48.218;16.414;2022-07-17T07:49:59;29.80;54.50
39103;DHT22;24847;48.218;16.414;2022-07-17T07:55:03;29.30;55.80
39103;DHT22;24847;48.218;16.414;2022-07-17T08:00:08;30.40;52.60
39103;DHT22;24847;48.218;16.414;2022-07-17T08:05:11;28.00;55.10
39103;DHT22;24847;48.218;16.414;2022-07-17T08:10:15;28.00;53.70
39103;DHT22;24847;48.218;16.414;2022-07-17T08:15:19;28.30;54.00
39103;DHT22;24847;48.218;16.414;2022-07-17T08:20:22;29.30;53.30
39103;DHT22;24847;48.218;16.414;2022-07-17T08:25:26;28.40;53.70
39103;DHT22;24847;48.218;16.414;2022-07-17T08:30:28;29.10;53.20
39103;DHT22;24847;48.218;16.414;2022-07-17T08:35:32;28.40;52.80
39103;DHT22;24847;48.218;16.414;2022-07-17T08:40:37;27.60;55.40
39103;DHT22;24847;48.218;16.414;2022-07-17T08:45:40;28.50;53.80
39103;DHT22;24847;48.218;16.414;2022-07-17T08:50:43;28.70;54.00
39103;DHT22;24847;48.218;16.414;2022-07-17T08:55:47;28.00;55.40
39103;DHT22;24847;48.218;16.414;2022-07-17T09:00:53;28.00;55.60
39103;DHT22;24847;48.218;16.414;2022-07-17T09:05:55;28.30;54.00
39103;DHT22;24847;48.218;16.414;2022-07-17T09:10:59;28.20;54.50
39103;DHT22;24847;48.218;16.414;2022-07-17T09:16:07;28.80;54.90
39103;DHT22;24847;48.218;16.414;2022-07-17T09:21:16;28.70;56.00
39103;DHT22;24847;48.218;16.414;2022-07-17T09:26:21;27.70;56.20
39103;DHT22;24847;48.218;16.414;2022-07-17T09:31:27;27.10;56.80
39103;DHT22;24847;48.218;16.414;2022-07-17T09:36:29;27.20;56.20
39103;DHT22;24847;48.218;16.414;2022-07-17T09:41:33;27.10;56.80
39103;DHT22;24847;48.218;16.414;2022-07-17T09:46:35;27.00;56.80
39103;DHT22;24847;48.218;16.414;2022-07-17T09:51:39;27.10;56.20
39103;DHT22;24847;48.218;16.414;2022-07-17T09:56:43;27.20;56.00
39103;DHT22;24847;48.218;16.414;2022-07-17T10:01:49;28.00;55.30
39103;DHT22;24847;48.218;16.414;2022-07-17T10:06:56;28.00;56.20
39103;DHT22;24847;48.218;16.414;2022-07-17T10:12:00;27.80;55.40
39103;DHT22;24847;48.218;16.414;2022-07-17T10:17:07;27.80;56.10
39103;DHT22;24847;48.218;16.414;2022-07-17T10:22:09;27.70;55.00
39103;DHT22;24847;48.218;16.414;2022-07-17T10:27:26;28.50;54.30
39103;DHT22;24847;48.218;16.414;2022-07-17T10:32:30;29.00;53.50
39103;DHT22;24847;48.218;16.414;2022-07-17T10:37:42;28.40;54.20
39103;DHT22;24847;48.218;16.414;2022-07-17T10:42:54;27.90;55.00
39103;DHT22;24847;48.218;16.414;2022-07-17T10:48:02;27.70;55.90
39103;DHT22;24847;48.218;16.414;2022-07-17T10:53:09;27.90;55.90
39103;DHT22;24847;48.218;16.414;2022-07-17T10:58:16;27.50;54.50
39103;DHT22;24847;48.218;16.414;2022-07-17T11:03:20;27.20;54.10
39103;DHT22;24847;48.218;16.414;2022-07-17T11:08:23;27.50;54.00
39103;DHT22;24847;48.218;16.414;2022-07-17T11:13:27;27.50;54.40
39103;DHT22;24847;48.218;16.414;2022-07-17T11:18:29;28.20;54.00
39103;DHT22;24847;48.218;16.414;2022-07-17T11:23:50;27.90;54.80
39103;DHT22;24847;48.218;16.414;2022-07-17T11:28:56;27.70;54.40
39103;DHT22;24847;48.218;16.414;2022-07-17T11:34:05;27.70;52.90
39103;DHT22;24847;48.218;16.414;2022-07-17T11:39:14;27.70;53.00
39103;DHT22;24847;48.218;16.414;2022-07-17T11:44:25;26.70;54.10
39103;DHT22;24847;48.218;16.414;2022-07-17T11:49:31;27.10;53.00
39103;DHT22;24847;48.218;16.414;2022-07-17T11:54:44;26.80;53.90
39103;DHT22;24847;48.218;16.414;2022-07-17T11:59:50;27.40;54.60
39103;DHT22;24847;48.218;16.414;2022-07-17T12:04:55;27.00;53.40
39103;DHT22;24847;48.218;16.414;2022-07-17T12:09:58;27.20;53.50
39103;DHT22;24847;48.218;16.414;2022-07-17T12:15:02;26.70;55.00
39103;DHT22;24847;48.218;16.414;2022-07-17T12:20:10;26.10;55.80
39103;DHT22;24847;48.218;16.414;2022-07-17T12:25:24;26.00;54.00
39103;DHT22;24847;48.218;16.414;2022-07-17T12:30:31;25.80;54.90
39103;DHT22;24847;48.218;16.414;2022-07-17T12:35:35;26.00;55.00
39103;DHT22;24847;48.218;16.414;2022-07-17T12:40:38;26.10;54.60
39103;DHT22;24847;48.218;16.414;2022-07-17T12:45:42;26.10;55.30
39103;DHT22;24847;48.218;16.414;2022-07-17T12:50:45;25.80;55.30
39103;DHT22;24847;48.218;16.414;2022-07-17T12:55:47;25.60;57.20
39103;DHT22;24847;48.218;16.414;2022-07-17T13:00:50;25.60;55.50
39103;DHT22;24847;48.218;16.414;2022-07-17T13:05:55;25.80;55.30
39103;DHT22;24847;48.218;16.414;2022-07-17T13:11:02;25.60;55.20
39103;DHT22;24847;48.218;16.414;2022-07-17T13:16:06;25.40;54.70
39103;DHT22;24847;48.218;16.414;2022-07-17T13:21:09;25.70;55.10
39103;DHT22;24847;48.218;16.414;2022-07-17T13:26:12;25.50;55.20
39103;DHT22;24847;48.218;16.414;2022-07-17T13:31:15;25.50;57.40
39103;DHT22;24847;48.218;16.414;2022-07-17T13:36:18;25.80;56.00
39103;DHT22;24847;48.218;16.414;2022-07-17T13:41:20;26.00;55.40
39103;DHT22;24847;48.218;16.414;2022-07-17T13:46:24;25.90;55.10
39103;DHT22;24847;48.218;16.414;2022-07-17T13:51:28;25.90;54.40
39103;DHT22;24847;48.218;16.414;2022-07-17T13:56:31;25.70;57.40
39103;DHT22;24847;48.218;16.414;2022-07-17T14:01:35;25.90;55.60
39103;DHT22;24847;48.218;16.414;2022-07-17T14:06:37;25.80;55.60
39103;DHT22;24847;48.218;16.414;2022-07-17T14:11:39;25.70;56.10
39103;DHT22;24847;48.218;16.414;2022-07-17T14:16:43;25.60;55.80
39103;DHT22;24847;48.218;16.414;2022-07-17T14:21:45;25.80;56.40
39103;DHT22;24847;48.218;16.414;2022-07-17T14:26:51;25.90;55.50
39103;DHT22;24847;48.218;16.414;2022-07-17T14:31:58;25.90;55.40
39103;DHT22;24847;48.218;16.414;2022-07-17T14:37:00;25.90;55.80
39103;DHT22;24847;48.218;16.414;2022-07-17T14:42:03;25.90;56.80
39103;DHT22;24847;48.218;16.414;2022-07-17T14:47:07;26.10;56.10
39103;DHT22;24847;48.218;16.414;2022-07-17T14:52:09;26.00;56.40
39103;DHT22;24847;48.218;16.414;2022-07-17T14:57:12;25.90;56.70
39103;DHT22;24847;48.218;16.414;2022-07-17T15:02:15;26.20;56.70
39103;DHT22;24847;48.218;16.414;2022-07-17T15:07:17;26.20;56.10
39103;DHT22;24847;48.218;16.414;2022-07-17T15:12:19;26.40;56.20
39103;DHT22;24847;48.218;16.414;2022-07-17T15:17:23;26.40;55.70
39103;DHT22;24847;48.218;16.414;2022-07-17T15:22:25;26.20;55.90
39103;DHT22;24847;48.218;16.414;2022-07-17T15:27:27;26.40;56.80
39103;DHT22;24847;48.218;16.414;2022-07-17T15:32:31;26.60;55.20
39103;DHT22;24847;48.218;16.414;2022-07-17T15:37:33;26.70;57.00
39103;DHT22;24847;48.218;16.414;2022-07-17T15:42:35;26.90;58.10
39103;DHT22;24847;48.218;16.414;2022-07-17T15:47:39;26.70;55.80
39103;DHT22;24847;48.218;16.414;2022-07-17T15:52:41;26.40;55.30
39103;DHT22;24847;48.218;16.414;2022-07-17T15:57:43;26.60;55.80
39103;DHT22;24847;48.218;16.414;2022-07-17T16:02:50;26.30;56.00
39103;DHT22;24847;48.218;16.414;2022-07-17T16:07:52;26.50;56.30
39103;DHT22;24847;48.218;16.414;2022-07-17T16:12:55;26.20;57.50
39103;DHT22;24847;48.218;16.414;2022-07-17T16:17:59;26.30;57.20
39103;DHT22;24847;48.218;16.414;2022-07-17T16:23:01;26.30;56.20
39103;DHT22;24847;48.218;16.414;2022-07-17T16:28:04;26.20;56.90
39103;DHT22;24847;48.218;16.414;2022-07-17T16:33:07;26.00;57.40
39103;DHT22;24847;48.218;16.414;2022-07-17T16:38:13;25.80;58.00
39103;DHT22;24847;48.218;16.414;2022-07-17T16:43:18;25.70;58.20
39103;DHT22;24847;48.218;16.414;2022-07-17T16:48:21;25.70;58.90
39103;DHT22;24847;48.218;16.414;2022-07-17T16:53:23;25.60;59.50
39103;DHT22;24847;48.218;16.414;2022-07-17T16:58:26;25.70;58.70
39103;DHT22;24847;48.218;16.414;2022-07-17T17:03:30;25.60;59.80
39103;DHT22;24847;48.218;16.414;2022-07-17T17:08:32;25.70;59.10
39103;DHT22;24847;48.218;16.414;2022-07-17T17:13:34;25.80;59.80
39103;DHT22;24847;48.218;16.414;2022-07-17T17:18:40;25.50;59.70
39103;DHT22;24847;48.218;16.414;2022-07-17T17:23:42;25.60;59.10
39103;DHT22;24847;48.218;16.414;2022-07-17T17:28:47;25.60;59.80
39103;DHT22;24847;48.218;16.414;2022-07-17T17:33:51;25.60;60.20
39103;DHT22;24847;48.218;16.414;2022-07-17T17:38:53;25.50;61.70
39103;DHT22;24847;48.218;16.414;2022-07-17T17:43:56;25.50;59.60
39103;DHT22;24847;48.218;16.414;2022-07-17T17:49:00;25.50;61.70
39103;DHT22;24847;48.218;16.414;2022-07-17T17:54:05;25.60;60.30
39103;DHT22;24847;48.218;16.414;2022-07-17T17:59:07;25.60;60.20
39103;DHT22;24847;48.218;16.414;2022-07-17T18:04:11;25.60;59.90
39103;DHT22;24847;48.218;16.414;2022-07-17T18:09:15;25.60;62.10
39103;DHT22;24847;48.218;16.414;2022-07-17T18:14:18;25.40;59.70
39103;DHT22;24847;48.218;16.414;2022-07-17T18:19:22;25.30;60.30
39103;DHT22;24847;48.218;16.414;2022-07-17T18:24:24;25.30;59.30
39103;DHT22;24847;48.218;16.414;2022-07-17T18:29:26;25.30;59.80
39103;DHT22;24847;48.218;16.414;2022-07-17T18:34:30;25.30;60.80
39103;DHT22;24847;48.218;16.414;2022-07-17T18:39:36;25.30;60.20
39103;DHT22;24847;48.218;16.414;2022-07-17T18:44:39;25.20;60.10
39103;DHT22;24847;48.218;16.414;2022-07-17T18:49:42;25.10;60.80
39103;DHT22;24847;48.218;16.414;2022-07-17T18:54:44;25.10;60.50
39103;DHT22;24847;48.218;16.414;2022-07-17T18:59:47;25.00;63.50
39103;DHT22;24847;48.218;16.414;2022-07-17T19:04:52;25.10;63.10
39103;DHT22;24847;48.218;16.414;2022-07-17T19:09:55;25.00;62.60
39103;DHT22;24847;48.218;16.414;2022-07-17T19:14:57;25.00;64.80
39103;DHT22;24847;48.218;16.414;2022-07-17T19:20:01;24.80;64.40
39103;DHT22;24847;48.218;16.414;2022-07-17T19:25:05;24.70;63.90
39103;DHT22;24847;48.218;16.414;2022-07-17T19:30:08;24.70;65.80
39103;DHT22;24847;48.218;16.414;2022-07-17T19:35:12;24.30;66.50
39103;DHT22;24847;48.218;16.414;2022-07-17T19:40:14;24.00;72.80
39103;DHT22;24847;48.218;16.414;2022-07-17T19:45:17;23.80;75.00
39103;DHT22;24847;48.218;16.414;2022-07-17T19:50:21;23.70;70.80
39103;DHT22;24847;48.218;16.414;2022-07-17T19:55:23;23.80;68.30
39103;DHT22;24847;48.218;16.414;2022-07-17T20:00:25;23.90;64.10
39103;DHT22;24847;48.218;16.414;2022-07-17T20:05:29;23.80;64.40
39103;DHT22;24847;48.218;16.414;2022-07-17T20:10:34;23.70;63.20
39103;DHT22;24847;48.218;16.414;2022-07-17T20:15:39;23.60;64.90
39103;DHT22;24847;48.218;16.414;2022-07-17T20:20:43;23.50;68.70
39103;DHT22;24847;48.218;16.414;2022-07-17T20:25:46;23.30;68.60
39103;DHT22;24847;48.218;16.414;2022-07-17T20:30:48;23.10;68.20
39103;DHT22;24847;48.218;16.414;2022-07-17T20:35:55;22.90;68.60
39103;DHT22;24847;48.218;16.414;2022-07-17T20:40:57;22.90;68.90
39103;DHT22;24847;48.218;16.414;2022-07-17T20:46:00;22.80;73.10
39103;DHT22;24847;48.218;16.414;2022-07-17T20:51:03;22.80;64.60
39103;DHT22;24847;48.218;16.414;2022-07-17T20:56:06;22.70;64.30
39103;DHT22;24847;48.218;16.414;2022-07-17T21:01:09;22.50;63.80
39103;DHT22;24847;48.218;16.414;2022-07-17T21:06:14;22.50;63.90
39103;DHT22;24847;48.218;16.414;2022-07-17T21:11:17;22.30;64.00
39103;DHT22;24847;48.218;16.414;2022-07-17T21:16:19;22.30;64.10
39103;DHT22;24847;48.218;16.414;2022-07-17T21:21:22;22.20;63.70
39103;DHT22;24847;48.218;16.414;2022-07-17T21:26:25;22.00;64.40
39103;DHT22;24847;48.218;16.414;2022-07-17T21:31:28;21.90;64.60
39103;DHT22;24847;48.218;16.414;2022-07-17T21:36:31;21.90;64.10
39103;DHT22;24847;48.218;16.414;2022-07-17T21:41:34;21.80;63.80
39103;DHT22;24847;48.218;16.414;2022-07-17T21:46:36;21.70;64.00
39103;DHT22;24847;48.218;16.414;2022-07-17T21:51:40;21.70;65.70
39103;DHT22;24847;48.218;16.414;2022-07-17T21:56:42;21.40;66.40
39103;DHT22;24847;48.218;16.414;2022-07-17T22:01:45;21.50;67.60
39103;DHT22;24847;48.218;16.414;2022-07-17T22:06:52;21.20;67.30
39103;DHT22;24847;48.218;16.414;2022-07-17T22:11:55;21.30;66.00
39103;DHT22;24847;48.218;16.414;2022-07-17T22:16:58;21.30;65.90
39103;DHT22;24847;48.218;16.414;2022-07-17T22:22:05;21.10;66.90
39103;DHT22;24847;48.218;16.414;2022-07-17T22:27:10;21.10;67.20
39103;DHT22;24847;48.218;16.414;2022-07-17T22:32:14;20.90;68.50
39103;DHT22;24847;48.218;16.414;2022-07-17T22:37:18;21.10;66.60
39103;DHT22;24847;48.218;16.414;2022-07-17T22:42:20;20.70;67.10
39103;DHT22;24847;48.218;16.414;2022-07-17T22:47:22;20.80;66.90
39103;DHT22;24847;48.218;16.414;2022-07-17T22:52:27;20.80;67.10
39103;DHT22;24847;48.218;16.414;2022-07-17T22:57:29;20.80;67.20
39103;DHT22;24847;48.218;16.414;2022-07-17T23:02:31;20.60;68.00
39103;DHT22;24847;48.218;16.414;2022-07-17T23:07:35;20.50;68.70
39103;DHT22;24847;48.218;16.414;2022-07-17T23:12:38;20.20;70.20
39103;DHT22;24847;48.218;16.414;2022-07-17T23:17:41;20.00;73.30
39103;DHT22;24847;48.218;16.414;2022-07-17T23:22:44;19.90;75.20
39103;DHT22;24847;48.218;16.414;2022-07-17T23:27:47;19.90;73.00
39103;DHT22;24847;48.218;16.414;2022-07-17T23:32:49;19.90;75.40
39103;DHT22;24847;48.218;16.414;2022-07-17T23:37:52;20.10;74.20
39103;DHT22;24847;48.218;16.414;2022-07-17T23:42:55;20.00;72.70
39103;DHT22;24847;48.218;16.414;2022-07-17T23:47:57;20.00;72.80
39103;DHT22;24847;48.218;16.414;2022-07-17T23:53:01;20.00;73.60
39103;DHT22;24847;48.218;16.414;2022-07-17T23:58:03;19.60;75.40
